createdAt,value
2016-04-05T00:00:05.980Z,24.22
2016-04-05T00:01:05.999Z,24.26
2016-04-05T00:02:05.985Z,24.19
2016-04-05T00:03:05.988Z,24.21
2016-04-05T00:04:06.007Z,24.21
2016-04-05T00:05:06.025Z,24.18
2016-04-05T00:06:06.027Z,24.22
2016-04-05T00:07:20.203Z,24.18
2016-04-05T00:08:06.049Z,24.22
2016-04-05T00:09:06.052Z,24.24
2016-04-05T00:10:06.054Z,24.22
2016-04-05T00:11:06.088Z,24.18
2016-04-05T00:12:06.060Z,24.15
2016-04-05T00:13:05.343Z,24.22
2016-04-05T00:14:06.096Z,24.15
2016-04-05T00:15:06.083Z,24.22
2016-04-05T00:16:06.117Z,24.12
2016-04-05T00:17:06.104Z,24.18
2016-04-05T00:18:06.137Z,24.15
2016-04-05T00:19:06.110Z,24.12
2016-04-05T00:20:06.003Z,24.09
2016-04-05T00:21:06.131Z,24.09
2016-04-05T00:22:06.149Z,24.12
2016-04-05T00:23:06.151Z,24.18
2016-04-05T00:24:06.154Z,24.14
2016-04-05T00:25:06.172Z,24.11
2016-04-05T00:26:06.159Z,24.12
2016-04-05T00:27:06.162Z,24.08
2016-04-05T00:28:06.181Z,24.11
2016-04-05T00:29:06.184Z,24.11
2016-04-05T00:30:06.186Z,24.12
2016-04-05T00:31:06.205Z,24.09
2016-04-05T00:32:06.208Z,24.12
2016-04-05T00:33:06.226Z,24.11
2016-04-05T00:34:06.244Z,24.04
2016-04-05T00:35:06.231Z,24.04
2016-04-05T00:36:06.249Z,24.08
2016-04-05T00:37:06.955Z,24.11
2016-04-05T00:38:06.254Z,24.03
2016-04-05T00:39:06.273Z,24.08
2016-04-05T00:40:06.276Z,24.07
2016-04-05T00:41:06.279Z,24.09
2016-04-05T00:42:06.328Z,24.04
2016-04-05T00:43:06.299Z,24.09
2016-04-05T00:44:06.302Z,24.09
2016-04-05T00:45:06.304Z,24.04
2016-04-05T00:46:06.307Z,24.07
2016-04-05T00:47:06.341Z,24.03
2016-04-05T00:48:06.328Z,24.09
2016-04-05T00:49:06.346Z,24.03
2016-04-05T00:50:06.395Z,24.04
2016-04-05T00:51:06.351Z,24.09
2016-04-05T00:52:06.354Z,24.03
2016-04-05T00:53:06.356Z,24.11
2016-04-05T00:54:06.376Z,24.09
2016-04-05T00:55:06.409Z,24.07
2016-04-05T00:56:06.397Z,24.08
2016-04-05T00:57:06.400Z,24.04
2016-04-05T00:58:06.417Z,24.08
2016-04-05T00:59:06.405Z,24.08
2016-04-05T01:00:06.422Z,24.04
2016-04-05T01:01:06.425Z,24.11
2016-04-05T01:02:06.428Z,24.02
2016-04-05T01:03:06.431Z,24.03
2016-04-05T01:04:06.466Z,24.02
2016-04-05T01:05:06.469Z,24.08
2016-04-05T01:06:06.455Z,24.09
2016-04-05T01:07:06.474Z,24.09
2016-04-05T01:08:06.476Z,24.08
2016-04-05T01:09:06.494Z,24.02
2016-04-05T01:10:06.497Z,24.07
2016-04-05T01:11:06.499Z,24.08
2016-04-05T01:12:06.502Z,24.04
2016-04-05T01:13:06.504Z,24.02
2016-04-05T01:14:06.523Z,24.03
2016-04-05T01:15:06.526Z,24.02
2016-04-05T01:16:06.528Z,24.02
2016-04-05T01:17:06.546Z,24.02
2016-04-05T01:18:06.549Z,24.03
2016-04-05T01:19:06.568Z,23.99
2016-04-05T01:20:06.571Z,24.02
2016-04-05T01:21:06.573Z,23.94
2016-04-05T01:22:06.576Z,24.04
2016-04-05T01:23:06.594Z,24.02
2016-04-05T01:24:06.581Z,24.02
2016-04-05T01:25:06.600Z,24.03
2016-04-05T01:26:06.617Z,24.03
2016-04-05T01:27:06.605Z,24
2016-04-05T01:28:06.623Z,23.92
2016-04-05T01:29:06.641Z,23.97
2016-04-05T01:30:06.644Z,23.99
2016-04-05T01:31:06.631Z,24.08
2016-04-05T01:32:06.650Z,24.04
2016-04-05T01:33:06.669Z,23.92
2016-04-05T01:34:06.671Z,23.96
2016-04-05T01:35:06.674Z,24.04
2016-04-05T01:36:06.676Z,24
2016-04-05T01:37:06.679Z,23.96
2016-04-05T01:38:06.682Z,24.04
2016-04-05T01:39:06.699Z,23.92
2016-04-05T01:40:06.703Z,23.96
2016-04-05T01:41:06.705Z,23.97
2016-04-05T01:42:06.724Z,23.94
2016-04-05T01:43:06.727Z,23.92
2016-04-05T01:44:06.729Z,23.92
2016-04-05T01:45:06.747Z,23.99
2016-04-05T01:46:06.802Z,23.93
2016-04-05T01:47:06.670Z,23.99
2016-04-05T01:48:06.766Z,23.94
2016-04-05T01:49:06.847Z,23.97
2016-04-05T01:50:06.795Z,23.97
2016-04-05T01:51:06.781Z,23.93
2016-04-05T01:52:06.784Z,23.99
2016-04-05T01:53:06.803Z,23.93
2016-04-05T01:54:06.805Z,23.99
2016-04-05T01:55:06.809Z,23.92
2016-04-05T01:56:06.826Z,23.93
2016-04-05T01:57:06.829Z,23.93
2016-04-05T01:58:06.831Z,23.89
2016-04-05T01:59:06.850Z,23.93
2016-04-05T02:00:06.931Z,23.97
2016-04-05T02:01:06.871Z,23.99
2016-04-05T02:02:06.873Z,23.94
2016-04-05T02:03:06.876Z,23.99
2016-04-05T02:04:06.895Z,23.99
2016-04-05T02:05:06.882Z,23.94
2016-04-05T02:06:06.901Z,23.93
2016-04-05T02:07:06.903Z,23.92
2016-04-05T02:08:06.911Z,23.85
2016-04-05T02:09:06.914Z,23.94
2016-04-05T02:10:06.916Z,23.9
2016-04-05T02:11:06.935Z,23.97
2016-04-05T02:12:06.952Z,23.92
2016-04-05T02:13:06.940Z,23.89
2016-04-05T02:14:06.958Z,23.89
2016-04-05T02:15:06.960Z,23.89
2016-04-05T02:16:06.963Z,23.93
2016-04-05T02:17:06.981Z,23.87
2016-04-05T02:18:06.984Z,23.85
2016-04-05T02:19:06.987Z,23.9
2016-04-05T02:20:07.005Z,23.89
2016-04-05T02:21:07.008Z,23.85
2016-04-05T02:22:07.026Z,23.85
2016-04-05T02:23:07.013Z,23.92
2016-04-05T02:24:07.016Z,23.89
2016-04-05T02:25:07.034Z,23.82
2016-04-05T02:26:07.037Z,23.9
2016-04-05T02:27:07.039Z,23.81
2016-04-05T02:28:07.058Z,23.89
2016-04-05T02:29:07.076Z,23.9
2016-04-05T02:30:07.063Z,23.85
2016-04-05T02:31:07.082Z,23.82
2016-04-05T02:32:07.084Z,23.79
2016-04-05T02:33:07.087Z,23.87
2016-04-05T02:34:07.105Z,23.77
2016-04-05T02:35:07.108Z,23.81
2016-04-05T02:36:07.111Z,23.84
2016-04-05T02:37:07.114Z,23.79
2016-04-05T02:38:07.132Z,23.84
2016-04-05T02:39:07.135Z,23.85
2016-04-05T02:40:07.137Z,23.84
2016-04-05T02:41:07.140Z,23.84
2016-04-05T02:42:07.158Z,23.82
2016-04-05T02:43:07.176Z,23.78
2016-04-05T02:44:07.164Z,23.79
2016-04-05T02:45:07.181Z,23.78
2016-04-05T02:46:07.171Z,23.78
2016-04-05T02:47:07.176Z,23.82
2016-04-05T02:48:07.151Z,23.77
2016-04-05T02:49:07.172Z,23.84
2016-04-05T02:50:07.146Z,23.85
2016-04-05T02:51:07.177Z,23.77
2016-04-05T02:52:07.159Z,23.77
2016-04-05T02:53:07.501Z,23.79
2016-04-05T02:54:07.171Z,23.77
2016-04-05T02:55:07.170Z,23.79
2016-04-05T02:56:07.171Z,23.74
2016-04-05T02:57:07.187Z,23.79
2016-04-05T02:58:07.173Z,23.79
2016-04-05T02:59:07.189Z,23.79
2016-04-05T03:00:06.940Z,23.78
2016-04-05T03:01:07.224Z,23.75
2016-04-05T03:02:07.210Z,23.74
2016-04-05T03:03:07.228Z,23.74
2016-04-05T03:04:07.526Z,23.79
2016-04-05T03:05:07.232Z,23.75
2016-04-05T03:06:07.078Z,23.81
2016-04-05T03:07:07.252Z,23.77
2016-04-05T03:08:07.240Z,23.77
2016-04-05T03:09:07.243Z,23.77
2016-04-05T03:10:07.261Z,23.77
2016-04-05T03:11:07.264Z,23.77
2016-04-05T03:12:07.282Z,23.77
2016-04-05T03:13:07.644Z,23.71
2016-04-05T03:14:07.303Z,23.74
2016-04-05T03:15:07.446Z,23.71
2016-04-05T03:16:07.605Z,23.74
2016-04-05T03:17:07.358Z,23.72
2016-04-05T03:18:07.313Z,23.67
2016-04-05T03:19:07.332Z,23.71
2016-04-05T03:20:07.334Z,23.71
2016-04-05T03:21:07.478Z,23.74
2016-04-05T03:22:07.340Z,23.72
2016-04-05T03:23:07.359Z,23.71
2016-04-05T03:24:07.361Z,23.7
2016-04-05T03:25:07.364Z,23.64
2016-04-05T03:26:07.382Z,23.62
2016-04-05T03:27:07.713Z,23.67
2016-04-05T03:28:07.372Z,23.77
2016-04-05T03:29:07.390Z,23.67
2016-04-05T03:30:07.628Z,23.66
2016-04-05T03:31:07.506Z,23.74
2016-04-05T03:32:07.415Z,23.67
2016-04-05T03:33:07.417Z,23.7
2016-04-05T03:34:07.436Z,23.72
2016-04-05T03:35:07.439Z,23.6
2016-04-05T03:36:07.438Z,23.7
2016-04-05T03:37:07.441Z,23.59
2016-04-05T03:38:07.396Z,23.72
2016-04-05T03:39:07.650Z,23.72
2016-04-05T03:40:07.464Z,23.67
2016-04-05T03:41:07.530Z,23.6
2016-04-05T03:42:07.782Z,23.67
2016-04-05T03:43:07.504Z,23.6
2016-04-05T03:44:07.491Z,23.6
2016-04-05T03:45:07.385Z,23.67
2016-04-05T03:46:07.808Z,23.66
2016-04-05T03:47:07.624Z,23.67
2016-04-05T03:48:07.533Z,23.56
2016-04-05T03:49:07.880Z,23.7
2016-04-05T03:50:07.523Z,23.7
2016-04-05T03:51:07.557Z,23.63
2016-04-05T03:52:07.606Z,23.64
2016-04-05T03:53:07.921Z,23.64
2016-04-05T03:54:07.565Z,23.64
2016-04-05T03:55:07.583Z,23.67
2016-04-05T03:56:07.774Z,23.62
2016-04-05T03:57:07.729Z,23.67
2016-04-05T03:58:07.623Z,23.67
2016-04-05T03:59:07.609Z,23.59
2016-04-05T04:00:07.721Z,23.7
2016-04-05T04:01:07.630Z,23.57
2016-04-05T04:02:07.617Z,23.66
2016-04-05T04:03:07.636Z,23.59
2016-04-05T04:04:07.685Z,23.57
2016-04-05T04:05:07.641Z,23.59
2016-04-05T04:06:07.644Z,23.59
2016-04-05T04:07:07.647Z,23.63
2016-04-05T04:08:07.681Z,23.63
2016-04-05T04:09:07.667Z,23.62
2016-04-05T04:10:07.827Z,23.6
2016-04-05T04:11:07.689Z,23.6
2016-04-05T04:12:07.739Z,23.57
2016-04-05T04:13:07.710Z,23.59
2016-04-05T04:14:07.697Z,23.63
2016-04-05T04:15:07.933Z,23.56
2016-04-05T04:16:07.858Z,23.55
2016-04-05T04:17:07.814Z,23.52
2016-04-05T04:18:07.723Z,23.56
2016-04-05T04:19:07.741Z,23.52
2016-04-05T04:20:07.963Z,23.57
2016-04-05T04:21:07.762Z,23.53
2016-04-05T04:22:08.124Z,23.55
2016-04-05T04:23:07.767Z,23.53
2016-04-05T04:25:07.788Z,23.59
2016-04-05T04:26:07.791Z,23.55
2016-04-05T04:27:07.794Z,23.55
2016-04-05T04:28:07.796Z,23.56
2016-04-05T04:29:07.815Z,23.48
2016-04-05T04:30:07.880Z,23.56
2016-04-05T04:31:07.836Z,23.56
2016-04-05T04:32:07.823Z,23.53
2016-04-05T04:33:08.154Z,23.56
2016-04-05T04:34:07.829Z,23.53
2016-04-05T04:35:07.956Z,23.57
2016-04-05T04:36:07.864Z,23.56
2016-04-05T04:37:08.071Z,23.53
2016-04-05T04:38:07.886Z,23.59
2016-04-05T04:39:07.873Z,23.57
2016-04-05T04:40:07.892Z,23.52
2016-04-05T04:41:07.894Z,23.56
2016-04-05T04:42:08.163Z,23.59
2016-04-05T04:43:07.916Z,23.59
2016-04-05T04:44:08.230Z,23.55
2016-04-05T04:45:08.311Z,23.56
2016-04-05T04:46:07.939Z,23.52
2016-04-05T04:47:08.192Z,23.55
2016-04-05T04:48:07.960Z,23.55
2016-04-05T04:49:07.963Z,23.56
2016-04-05T04:50:08.293Z,23.53
2016-04-05T04:51:07.968Z,23.59
2016-04-05T04:52:08.268Z,23.56
2016-04-05T04:53:08.176Z,23.55
2016-04-05T04:54:07.977Z,23.57
2016-04-05T04:55:07.979Z,23.56
2016-04-05T04:56:08.012Z,23.55
2016-04-05T04:57:08.016Z,23.59
2016-04-05T04:58:08.018Z,23.59
2016-04-05T04:59:08.037Z,23.6
2016-04-05T05:00:08.648Z,23.63
2016-04-05T05:01:08.042Z,23.56
2016-04-05T05:02:08.060Z,23.55
2016-04-05T05:03:08.047Z,23.59
2016-04-05T05:04:08.409Z,23.52
2016-04-05T05:05:08.303Z,23.56
2016-04-05T05:06:08.070Z,23.56
2016-04-05T05:07:08.073Z,23.53
2016-04-05T05:08:08.233Z,23.56
2016-04-05T05:09:08.095Z,23.57
2016-04-05T05:10:08.097Z,23.53
2016-04-05T05:11:08.116Z,23.53
2016-04-05T05:12:08.119Z,23.55
2016-04-05T05:13:07.964Z,23.55
2016-04-05T05:14:08.233Z,23.53
2016-04-05T05:15:08.158Z,23.55
2016-04-05T05:16:08.130Z,23.53
2016-04-05T05:17:08.335Z,23.55
2016-04-05T05:18:08.165Z,23.57
2016-04-05T05:19:08.184Z,23.59
2016-04-05T05:20:08.218Z,23.56
2016-04-05T05:21:08.470Z,23.5
2016-04-05T05:22:08.177Z,23.56
2016-04-05T05:23:08.288Z,23.56
2016-04-05T05:24:08.385Z,23.55
2016-04-05T05:25:08.200Z,23.57
2016-04-05T05:26:08.406Z,23.56
2016-04-05T05:27:08.205Z,23.53
2016-04-05T05:28:08.427Z,23.56
2016-04-05T05:29:08.227Z,23.47
2016-04-05T05:30:08.448Z,23.57
2016-04-05T05:31:08.498Z,23.52
2016-04-05T05:32:08.250Z,23.57
2016-04-05T05:33:08.268Z,23.56
2016-04-05T05:34:08.271Z,23.55
2016-04-05T05:35:08.305Z,23.56
2016-04-05T05:36:08.339Z,23.55
2016-04-05T05:37:08.295Z,23.6
2016-04-05T05:38:08.297Z,23.56
2016-04-05T05:39:08.301Z,23.55
2016-04-05T05:40:08.303Z,23.57
2016-04-05T05:41:08.321Z,23.53
2016-04-05T05:42:08.309Z,23.56
2016-04-05T05:43:08.342Z,23.57
2016-04-05T05:44:08.392Z,23.52
2016-04-05T05:45:08.348Z,23.55
2016-04-05T05:46:08.350Z,23.59
2016-04-05T05:47:08.509Z,23.55
2016-04-05T05:48:08.371Z,23.55
2016-04-05T05:49:08.374Z,23.56
2016-04-05T05:50:08.376Z,23.55
2016-04-05T05:51:08.379Z,23.62
2016-04-05T05:52:08.382Z,23.56
2016-04-05T05:53:08.400Z,23.55
2016-04-05T05:54:08.403Z,23.59
2016-04-05T05:55:08.421Z,23.55
2016-04-05T05:56:08.424Z,23.55
2016-04-05T05:57:08.427Z,23.55
2016-04-05T05:58:08.429Z,23.57
2016-04-05T05:59:08.448Z,23.55
2016-04-05T06:00:08.451Z,23.62
2016-04-05T06:01:08.454Z,23.59
2016-04-05T06:02:08.456Z,23.59
2016-04-05T06:03:08.473Z,23.62
2016-04-05T06:04:08.477Z,23.59
2016-04-05T06:05:08.464Z,23.6
2016-04-05T06:06:08.497Z,23.67
2016-04-05T06:07:08.485Z,23.66
2016-04-05T06:08:08.503Z,23.71
2016-04-05T06:09:08.506Z,23.66
2016-04-05T06:10:08.509Z,23.59
2016-04-05T06:11:08.527Z,23.67
2016-04-05T06:12:08.530Z,23.67
2016-04-05T06:13:08.533Z,23.64
2016-04-05T06:14:08.535Z,23.64
2016-04-05T06:15:08.553Z,23.67
2016-04-05T06:16:08.556Z,23.71
2016-04-05T06:17:08.574Z,23.67
2016-04-05T06:18:08.577Z,23.64
2016-04-05T06:19:08.580Z,23.6
2016-04-05T06:20:08.582Z,23.72
2016-04-05T06:21:08.585Z,23.64
2016-04-05T06:22:08.603Z,23.67
2016-04-05T06:23:08.606Z,23.72
2016-04-05T06:24:08.625Z,23.62
2016-04-05T06:25:08.627Z,23.66
2016-04-05T06:26:08.629Z,23.59
2016-04-05T06:27:08.649Z,23.71
2016-04-05T06:28:08.651Z,23.67
2016-04-05T06:29:08.653Z,23.67
2016-04-05T06:30:08.657Z,23.63
2016-04-05T06:31:08.659Z,23.64
2016-04-05T06:32:08.662Z,23.72
2016-04-05T06:33:08.679Z,23.6
2016-04-05T06:34:08.682Z,23.71
2016-04-05T06:35:08.685Z,23.67
2016-04-05T06:36:08.687Z,23.7
2016-04-05T06:37:08.706Z,23.72
2016-04-05T06:38:08.725Z,23.74
2016-04-05T06:39:08.743Z,23.74
2016-04-05T06:40:08.745Z,23.74
2016-04-05T06:41:08.748Z,23.75
2016-04-05T06:42:08.751Z,23.78
2016-04-05T06:43:08.753Z,23.78
2016-04-05T06:44:08.756Z,23.78
2016-04-05T06:45:08.775Z,23.75
2016-04-05T06:46:08.762Z,23.74
2016-04-05T06:47:08.780Z,23.7
2016-04-05T06:48:08.782Z,23.81
2016-04-05T06:49:08.786Z,23.72
2016-04-05T06:50:08.803Z,23.71
2016-04-05T06:51:08.806Z,23.74
2016-04-05T06:52:08.809Z,23.71
2016-04-05T06:53:08.827Z,23.77
2016-04-05T06:54:08.830Z,23.77
2016-04-05T06:55:08.833Z,23.74
2016-04-05T06:56:08.835Z,23.74
2016-04-05T06:57:08.854Z,23.78
2016-04-05T06:58:08.700Z,23.78
2016-04-05T06:59:08.890Z,23.75
2016-04-05T07:00:08.862Z,23.78
2016-04-05T07:01:08.880Z,23.79
2016-04-05T07:02:08.898Z,23.84
2016-04-05T07:03:08.901Z,23.84
2016-04-05T07:04:08.904Z,23.84
2016-04-05T07:05:08.906Z,23.81
2016-04-05T07:06:08.893Z,23.89
2016-04-05T07:07:08.912Z,23.84
2016-04-05T07:08:08.947Z,23.82
2016-04-05T07:09:08.934Z,23.82
2016-04-05T07:10:08.937Z,23.85
2016-04-05T07:11:08.939Z,23.87
2016-04-05T07:12:08.974Z,23.85
2016-04-05T07:13:08.961Z,23.89
2016-04-05T07:14:08.980Z,23.93
2016-04-05T07:15:08.982Z,23.85
2016-04-05T07:16:09.000Z,23.94
2016-04-05T07:17:09.003Z,23.96
2016-04-05T07:18:08.991Z,23.94
2016-04-05T07:19:08.993Z,23.92
2016-04-05T07:20:09.011Z,23.97
2016-04-05T07:21:09.046Z,23.99
2016-04-05T07:22:09.032Z,23.99
2016-04-05T07:23:09.035Z,23.99
2016-04-05T07:24:09.038Z,23.93
2016-04-05T07:25:09.040Z,24.08
2016-04-05T07:26:09.059Z,23.9
2016-04-05T07:27:09.061Z,24.03
2016-04-05T07:28:09.079Z,23.87
2016-04-05T07:29:09.082Z,24
2016-04-05T07:30:09.100Z,24.07
2016-04-05T07:31:09.088Z,24.03
2016-04-05T07:32:09.090Z,24.04
2016-04-05T07:33:09.108Z,24
2016-04-05T07:34:09.111Z,24.03
2016-04-05T07:35:09.114Z,23.99
2016-04-05T07:36:09.117Z,23.99
2016-04-05T07:37:09.150Z,24.03
2016-04-05T07:38:09.154Z,24.08
2016-04-05T07:39:09.172Z,24.03
2016-04-05T07:40:09.158Z,24.08
2016-04-05T07:41:09.177Z,24.09
2016-04-05T07:42:09.164Z,24.07
2016-04-05T07:43:09.198Z,24.03
2016-04-05T07:44:09.200Z,24.09
2016-04-05T07:45:09.188Z,24.11
2016-04-05T07:46:09.206Z,24.09
2016-04-05T07:47:09.193Z,24.03
2016-04-05T07:48:09.211Z,24.09
2016-04-05T07:49:09.230Z,24.07
2016-04-05T07:50:09.233Z,24.09
2016-04-05T07:51:09.251Z,24.09
2016-04-05T07:52:09.238Z,24.04
2016-04-05T07:53:09.257Z,24.11
2016-04-05T07:54:09.243Z,24.08
2016-04-05T07:55:09.262Z,24.11
2016-04-05T07:56:09.265Z,24.15
2016-04-05T07:57:09.267Z,24.09
2016-04-05T07:58:09.285Z,24.22
2016-04-05T07:59:09.288Z,24.18
2016-04-05T08:00:09.290Z,24.18
2016-04-05T08:01:09.293Z,24.17
2016-04-05T08:02:09.326Z,24.29
2016-04-05T08:03:09.346Z,24.17
2016-04-05T08:04:09.332Z,24.15
2016-04-05T08:05:09.335Z,24.22
2016-04-05T08:06:09.338Z,24.17
2016-04-05T08:07:09.356Z,24.27
2016-04-05T08:08:09.375Z,24.3
2016-04-05T08:09:09.378Z,24.26
2016-04-05T08:10:09.395Z,24.24
2016-04-05T08:11:09.398Z,24.22
2016-04-05T08:12:09.400Z,24.21
2016-04-05T08:13:09.420Z,24.15
2016-04-05T08:14:09.406Z,24.15
2016-04-05T08:15:09.409Z,24.15
2016-04-05T08:16:09.427Z,24.3
2016-04-05T08:17:09.430Z,24.19
2016-04-05T08:18:09.433Z,24.27
2016-04-05T08:19:09.435Z,24.26
2016-04-05T08:20:09.455Z,24.27
2016-04-05T08:21:09.457Z,24.3
2016-04-05T08:22:09.459Z,24.3
2016-04-05T08:23:09.477Z,24.29
2016-04-05T08:24:09.479Z,24.27
2016-04-05T08:25:09.483Z,24.32
2016-04-05T08:26:09.485Z,24.3
2016-04-05T08:27:09.504Z,24.3
2016-04-05T08:28:09.507Z,24.32
2016-04-05T08:29:09.524Z,24.33
2016-04-05T08:30:09.527Z,24.33
2016-04-05T08:31:09.530Z,24.33
2016-04-05T08:32:09.532Z,24.4
2016-04-05T08:33:09.551Z,24.33
2016-04-05T08:34:09.570Z,24.37
2016-04-05T08:35:09.557Z,24.48
2016-04-05T08:36:09.575Z,24.51
2016-04-05T08:37:09.578Z,24.45
2016-04-05T08:38:09.580Z,24.45
2016-04-05T08:39:09.598Z,24.45
2016-04-05T08:40:09.601Z,24.52
2016-04-05T08:41:09.603Z,24.55
2016-04-05T08:42:09.607Z,24.45
2016-04-05T08:43:09.609Z,24.56
2016-04-05T08:44:09.627Z,24.59
2016-04-05T08:45:09.646Z,24.58
2016-04-05T08:46:09.649Z,24.51
2016-04-05T08:47:09.667Z,24.61
2016-04-05T08:48:09.669Z,24.59
2016-04-05T08:49:09.673Z,24.56
2016-04-05T08:50:09.675Z,24.55
2016-04-05T08:51:09.677Z,24.58
2016-04-05T08:52:09.696Z,24.67
2016-04-05T08:53:09.713Z,24.7
2016-04-05T08:54:09.702Z,24.69
2016-04-05T08:55:09.719Z,24.7
2016-04-05T08:56:09.722Z,24.66
2016-04-05T08:57:09.741Z,24.67
2016-04-05T08:58:09.727Z,24.71
2016-04-05T08:59:09.762Z,24.75
2016-04-05T09:00:09.749Z,24.75
2016-04-05T09:01:09.751Z,24.74
2016-04-05T09:02:09.770Z,24.71
2016-04-05T09:03:09.773Z,24.83
2016-04-05T09:04:09.776Z,24.85
2016-04-05T09:05:09.778Z,24.86
2016-04-05T09:06:09.796Z,24.78
2016-04-05T09:07:09.814Z,24.75
2016-04-05T09:08:09.801Z,24.78
2016-04-05T09:09:09.820Z,24.92
2016-04-05T09:10:09.827Z,24.78
2016-04-05T09:11:09.846Z,24.9
2016-04-05T09:12:09.864Z,24.93
2016-04-05T09:13:09.851Z,24.94
2016-04-05T09:14:09.853Z,24.92
2016-04-05T09:15:09.856Z,24.93
2016-04-05T09:16:09.891Z,24.92
2016-04-05T09:17:09.908Z,24.9
2016-04-05T09:18:09.927Z,24.96
2016-04-05T09:19:09.899Z,25.01
2016-04-05T09:20:09.917Z,25.01
2016-04-05T09:21:10.013Z,25.11
2016-04-05T09:22:09.938Z,25.05
2016-04-05T09:23:09.925Z,25.02
2016-04-05T09:24:09.943Z,25.12
2016-04-05T09:25:09.946Z,25.08
2016-04-05T09:26:09.964Z,25.09
2016-04-05T09:27:09.968Z,25.11
2016-04-05T09:28:09.970Z,25.15
2016-04-05T09:29:09.973Z,25.17
2016-04-05T09:30:09.975Z,25.24
2016-04-05T09:31:10.149Z,25.2
2016-04-05T09:32:10.012Z,25.29
2016-04-05T09:33:09.998Z,25.37
2016-04-05T09:34:10.017Z,25.3
2016-04-05T09:35:10.035Z,25.37
2016-04-05T09:36:10.179Z,25.33
2016-04-05T09:37:10.041Z,25.37
2016-04-05T09:38:10.059Z,25.41
2016-04-05T09:39:10.265Z,25.44
2016-04-05T09:40:10.064Z,25.45
2016-04-05T09:41:10.098Z,25.41
2016-04-05T09:42:10.069Z,25.48
2016-04-05T09:43:10.104Z,25.48
2016-04-05T09:44:10.091Z,25.47
2016-04-05T09:45:10.108Z,25.52
2016-04-05T09:46:10.314Z,25.47
2016-04-05T09:47:10.114Z,25.47
2016-04-05T09:48:10.132Z,25.47
2016-04-05T09:49:10.166Z,25.49
2016-04-05T09:50:10.155Z,25.62
2016-04-05T09:51:10.172Z,25.51
2016-04-05T09:52:10.159Z,25.6
2016-04-05T09:53:10.178Z,25.59
2016-04-05T09:54:24.352Z,25.48
2016-04-05T09:55:10.199Z,25.7
2016-04-05T09:56:10.216Z,25.62
2016-04-05T09:57:10.219Z,25.52
2016-04-05T09:58:10.254Z,25.64
2016-04-05T09:59:10.240Z,25.67
2016-04-05T10:00:10.227Z,25.66
2016-04-05T10:01:10.261Z,25.74
2016-04-05T10:02:10.249Z,25.74
2016-04-05T10:03:10.251Z,25.78
2016-04-05T10:04:10.254Z,25.74
2016-04-05T10:05:10.272Z,25.69
2016-04-05T10:06:10.290Z,25.79
2016-04-05T10:07:10.277Z,25.78
2016-04-05T10:08:10.295Z,25.81
2016-04-05T10:09:10.298Z,25.84
2016-04-05T10:10:10.316Z,25.84
2016-04-05T10:11:10.335Z,25.84
2016-04-05T10:12:10.338Z,25.82
2016-04-05T10:13:10.356Z,25.84
2016-04-05T10:14:10.375Z,25.82
2016-04-05T10:15:10.362Z,25.89
2016-04-05T10:16:10.239Z,25.86
2016-04-05T10:17:10.383Z,25.88
2016-04-05T10:18:10.386Z,25.93
2016-04-05T10:19:10.403Z,25.85
2016-04-05T10:20:10.406Z,25.94
2016-04-05T10:21:10.424Z,25.93
2016-04-05T10:22:10.411Z,25.91
2016-04-05T10:23:10.414Z,25.94
2016-04-05T10:24:10.416Z,25.97
2016-04-05T10:25:10.436Z,25.93
2016-04-05T10:26:10.438Z,25.89
2016-04-05T10:27:10.457Z,25.89
2016-04-05T10:28:10.460Z,25.94
2016-04-05T10:29:10.462Z,25.91
2016-04-05T10:30:10.480Z,25.91
2016-04-05T10:31:10.482Z,25.88
2016-04-05T10:32:10.501Z,25.93
2016-04-05T10:33:10.504Z,25.89
2016-04-05T10:34:10.523Z,25.96
2016-04-05T10:35:10.525Z,25.94
2016-04-05T10:36:10.528Z,25.99
2016-04-05T10:37:10.545Z,26.01
2016-04-05T10:38:10.548Z,26
2016-04-05T10:39:10.567Z,26.01
2016-04-05T10:40:10.569Z,26
2016-04-05T10:41:10.587Z,26.01
2016-04-05T10:42:10.590Z,26
2016-04-05T10:43:10.592Z,25.99
2016-04-05T10:44:10.596Z,25.97
2016-04-05T10:45:10.598Z,26.01
2016-04-05T10:46:10.476Z,26
2016-04-05T10:47:10.603Z,26.01
2016-04-05T10:48:10.622Z,25.99
2016-04-05T10:49:10.625Z,25.99
2016-04-05T10:50:10.627Z,25.97
2016-04-05T10:51:10.661Z,25.97
2016-04-05T10:52:10.664Z,25.96
2016-04-05T10:53:10.682Z,25.96
2016-04-05T10:54:10.669Z,26.03
2016-04-05T10:55:10.687Z,25.94
2016-04-05T10:56:10.707Z,26.03
2016-04-05T10:57:10.709Z,26.11
2016-04-05T10:58:10.712Z,26.11
2016-04-05T10:59:10.715Z,26.09
2016-04-05T11:00:09.999Z,26.11
2016-04-05T11:01:10.735Z,26.22
2016-04-05T11:02:10.754Z,26.22
2016-04-05T11:03:10.756Z,26.27
2016-04-05T11:04:10.744Z,26.24
2016-04-05T11:05:10.762Z,26.23
2016-04-05T11:06:10.780Z,26.26
2016-04-05T11:07:10.783Z,26.27
2016-04-05T11:08:10.792Z,26.31
2016-04-05T11:09:10.629Z,26.32
2016-04-05T11:10:10.804Z,26.23
2016-04-05T11:11:10.807Z,26.2
2016-04-05T11:12:10.825Z,26.27
2016-04-05T11:13:10.812Z,26.27
2016-04-05T11:14:10.831Z,26.32
2016-04-05T11:15:10.849Z,26.34
2016-04-05T11:16:10.852Z,26.37
2016-04-05T11:17:10.714Z,26.34
2016-04-05T11:18:10.873Z,26.35
2016-04-05T11:19:10.876Z,26.34
2016-04-05T11:20:10.878Z,26.39
2016-04-05T11:21:10.897Z,26.35
2016-04-05T11:22:10.915Z,26.47
2016-04-05T11:23:10.934Z,26.38
2016-04-05T11:24:10.920Z,26.47
2016-04-05T11:25:10.922Z,26.41
2016-04-05T11:26:10.925Z,26.37
2016-04-05T11:27:10.944Z,26.39
2016-04-05T11:28:10.947Z,26.35
2016-04-05T11:29:10.966Z,26.39
2016-04-05T11:30:10.952Z,26.37
2016-04-05T11:31:10.986Z,26.37
2016-04-05T11:32:10.989Z,26.38
2016-04-05T11:33:11.022Z,26.42
2016-04-05T11:34:11.010Z,26.37
2016-04-05T11:35:11.028Z,26.39
2016-04-05T11:36:11.030Z,26.3
2016-04-05T11:37:11.018Z,26.37
2016-04-05T11:38:11.051Z,26.37
2016-04-05T11:39:11.054Z,26.35
2016-04-05T11:40:11.041Z,26.38
2016-04-05T11:41:10.325Z,26.34
2016-04-05T11:42:11.078Z,26.31
2016-04-05T11:43:11.095Z,26.22
2016-04-05T11:44:11.114Z,26.34
2016-04-05T11:45:11.101Z,26.34
2016-04-05T11:46:11.103Z,26.35
2016-04-05T11:47:11.107Z,26.35
2016-04-05T11:48:11.125Z,26.32
2016-04-05T11:49:11.159Z,26.31
2016-04-05T11:50:11.161Z,26.34
2016-04-05T11:51:11.147Z,26.34
2016-04-05T11:52:11.173Z,26.24
2016-04-05T11:53:11.135Z,26.26
2016-04-05T11:54:11.144Z,26.34
2016-04-05T11:55:11.138Z,26.26
2016-04-05T11:56:11.133Z,26.35
2016-04-05T11:57:11.164Z,26.34
2016-04-05T11:58:11.163Z,26.31
2016-04-05T11:59:11.194Z,26.24
2016-04-05T12:00:10.460Z,26.32
2016-04-05T12:01:11.178Z,26.22
2016-04-05T12:02:11.180Z,26.27
2016-04-05T12:03:11.198Z,26.34
2016-04-05T12:04:11.199Z,26.27
2016-04-05T12:05:11.231Z,26.24
2016-04-05T12:06:11.218Z,26.26
2016-04-05T12:07:11.220Z,26.24
2016-04-05T12:08:11.222Z,26.26
2016-04-05T12:09:11.240Z,26.2
2016-04-05T12:10:11.242Z,26.27
2016-04-05T12:11:11.261Z,26.22
2016-04-05T12:12:11.264Z,26.23
2016-04-05T12:13:11.266Z,26.17
2016-04-05T12:14:11.284Z,26.23
2016-04-05T12:15:11.287Z,26.24
2016-04-05T12:16:11.305Z,26.3
2016-04-05T12:17:11.292Z,26.27
2016-04-05T12:18:11.326Z,26.22
2016-04-05T12:19:11.314Z,26.26
2016-04-05T12:20:11.331Z,26.27
2016-04-05T12:21:11.334Z,26.2
2016-04-05T12:22:11.352Z,26.32
2016-04-05T12:23:11.355Z,26.34
2016-04-05T12:24:11.358Z,26.34
2016-04-05T12:25:11.392Z,26.39
2016-04-05T12:26:11.379Z,26.39
2016-04-05T12:27:11.397Z,26.32
2016-04-05T12:28:11.399Z,26.38
2016-04-05T12:29:11.403Z,26.34
2016-04-05T12:30:11.405Z,26.35
2016-04-05T12:31:11.440Z,26.47
2016-04-05T12:32:11.426Z,26.38
2016-04-05T12:33:11.429Z,26.41
2016-04-05T12:34:11.447Z,26.44
2016-04-05T12:35:11.450Z,26.39
2016-04-05T12:36:11.468Z,26.38
2016-04-05T12:37:11.471Z,26.38
2016-04-05T12:38:11.490Z,26.35
2016-04-05T12:39:11.493Z,26.34
2016-04-05T12:40:11.510Z,26.27
2016-04-05T12:41:11.497Z,26.31
2016-04-05T12:42:11.515Z,26.26
2016-04-05T12:43:11.534Z,26.26
2016-04-05T12:44:11.537Z,26.26
2016-04-05T12:45:11.540Z,26.24
2016-04-05T12:46:25.714Z,26.26
2016-04-05T12:47:11.560Z,26.23
2016-04-05T12:48:11.564Z,26.23
2016-04-05T12:49:11.567Z,26.22
2016-04-05T12:50:11.569Z,26.2
2016-04-05T12:51:11.603Z,26.23
2016-04-05T12:52:11.606Z,26.23
2016-04-05T12:53:11.624Z,26.37
2016-04-05T12:54:11.642Z,26.39
2016-04-05T12:55:11.629Z,26.38